createdAt,value
2019-02-25T00:00:07.123Z,10.70
2019-02-25T00:02:36.431Z,10.60
2019-02-25T00:05:05.904Z,10.60
2019-02-25T00:07:35.365Z,10.60
2019-02-25T00:10:05.870Z,10.60
2019-02-25T00:12:35.775Z,10.60
2019-02-25T00:15:05.193Z,10.50
2019-02-25T00:17:35.264Z,10.50
2019-02-25T00:20:04.722Z,10.50
2019-02-25T00:22:33.991Z,10.50
2019-02-25T00:25:03.089Z,10.40
2019-02-25T00:27:32.214Z,10.40
2019-02-25T00:30:01.397Z,10.40
2019-02-25T00:32:30.480Z,10.40
2019-02-25T00:35:00.425Z,10.40
2019-02-25T00:37:29.670Z,10.30
2019-02-25T00:39:58.836Z,10.30
2019-02-25T00:42:28.781Z,10.20
2019-02-25T00:45:01.978Z,10.20
2019-02-25T00:47:31.908Z,10.20
2019-02-25T00:50:01.134Z,10.20
2019-02-25T00:52:30.149Z,10.10
2019-02-25T00:54:59.262Z,10.10
2019-02-25T00:57:28.704Z,10.00
2019-02-25T00:59:57.585Z,10.00
2019-02-25T01:02:26.626Z,10.00
2019-02-25T01:04:55.718Z,10.00
2019-02-25T01:07:25.032Z,9.90
2019-02-25T01:09:54.077Z,10.00
2019-02-25T01:12:23.361Z,10.00
2019-02-25T01:14:52.688Z,9.90
2019-02-25T01:17:22.130Z,9.90
2019-02-25T01:19:51.458Z,9.80
2019-02-25T01:22:20.514Z,9.80
2019-02-25T01:24:49.513Z,9.80
2019-02-25T01:27:18.470Z,9.80
2019-02-25T01:29:47.710Z,9.80
2019-02-25T01:32:16.930Z,9.80
2019-02-25T01:34:45.993Z,9.80
2019-02-25T01:37:15.105Z,9.80
2019-02-25T01:39:44.653Z,9.80
2019-02-25T01:42:13.742Z,9.80
2019-02-25T01:44:43.042Z,9.80
2019-02-25T01:47:11.936Z,9.80
2019-02-25T01:49:40.847Z,9.80
2019-02-25T01:52:10.068Z,9.80
2019-02-25T01:54:39.322Z,9.80
2019-02-25T01:57:08.591Z,9.80
2019-02-25T01:59:37.734Z,9.80
2019-02-25T02:02:06.838Z,9.80
2019-02-25T02:04:35.846Z,9.80
2019-02-25T02:07:04.941Z,9.70
2019-02-25T02:09:34.217Z,9.70
2019-02-25T02:12:03.290Z,9.70
2019-02-25T02:14:32.579Z,9.70
2019-02-25T02:17:01.913Z,9.70
2019-02-25T02:19:31.090Z,9.70
2019-02-25T02:22:00.484Z,9.70
2019-02-25T02:24:29.608Z,9.70
2019-02-25T02:26:58.594Z,9.70
2019-02-25T02:29:27.694Z,9.70
2019-02-25T02:31:56.801Z,9.70
2019-02-25T02:34:25.872Z,9.70
2019-02-25T02:36:55.201Z,9.70
2019-02-25T02:39:24.198Z,9.70
2019-02-25T02:42:16.142Z,9.60
2019-02-25T02:44:46.983Z,9.60
2019-02-25T02:47:28.505Z,9.60
2019-02-25T02:49:57.678Z,9.60
2019-02-25T02:52:26.610Z,9.60
2019-02-25T02:54:56.184Z,9.60
2019-02-25T02:57:25.224Z,9.60
2019-02-25T02:59:54.292Z,9.60
2019-02-25T03:02:23.389Z,9.60
2019-02-25T03:04:52.809Z,9.60
2019-02-25T03:07:22.244Z,9.60
2019-02-25T03:09:51.159Z,9.60
2019-02-25T03:12:20.431Z,9.60
2019-02-25T03:14:49.399Z,9.60
2019-02-25T03:17:18.451Z,9.50
2019-02-25T03:19:47.353Z,9.60
2019-02-25T03:22:16.700Z,9.60
2019-02-25T03:24:46.449Z,9.60
2019-02-25T03:27:15.469Z,9.50
2019-02-25T03:29:44.597Z,9.50
2019-02-25T03:32:13.676Z,9.50
2019-02-25T03:34:43.029Z,9.40
2019-02-25T03:37:12.076Z,9.40
2019-02-25T03:39:40.981Z,9.40
2019-02-25T03:42:09.929Z,9.30
2019-02-25T03:44:39.068Z,9.30
2019-02-25T03:47:08.335Z,9.20
2019-02-25T03:49:37.738Z,9.10
2019-02-25T03:52:06.977Z,9.10
2019-02-25T03:54:36.035Z,9.10
2019-02-25T03:57:05.216Z,9.10
2019-02-25T03:59:34.392Z,9.00
2019-02-25T04:02:03.478Z,9.00
2019-02-25T04:04:32.522Z,9.00
2019-02-25T04:07:01.498Z,9.00
2019-02-25T04:09:30.885Z,9.00
2019-02-25T04:11:59.981Z,8.90
2019-02-25T04:14:29.052Z,8.90
2019-02-25T04:16:58.429Z,8.90
2019-02-25T04:19:27.494Z,8.90
2019-02-25T04:21:56.443Z,8.90
2019-02-25T04:24:25.498Z,8.90
2019-02-25T04:26:55.707Z,8.90
2019-02-25T04:29:25.059Z,8.80
2019-02-25T04:31:53.971Z,8.80
2019-02-25T04:34:23.437Z,8.80
2019-02-25T04:36:52.983Z,8.80
2019-02-25T04:39:22.556Z,8.70
2019-02-25T04:41:51.906Z,8.70
2019-02-25T04:44:20.888Z,8.70
2019-02-25T04:46:50.309Z,8.70
2019-02-25T04:49:19.395Z,8.70
2019-02-25T04:51:48.744Z,8.70
2019-02-25T04:54:17.746Z,8.70
2019-02-25T04:56:46.812Z,8.70
2019-02-25T04:59:16.078Z,8.70
2019-02-25T05:01:45.134Z,8.70
2019-02-25T05:04:14.417Z,8.70
2019-02-25T05:06:43.932Z,8.70
2019-02-25T05:09:13.024Z,8.70
2019-02-25T05:11:42.276Z,8.70
2019-02-25T05:14:11.654Z,8.70
2019-02-25T05:16:40.971Z,8.70
2019-02-25T05:19:10.020Z,8.70
2019-02-25T05:21:39.555Z,8.60
2019-02-25T05:24:08.532Z,8.60
2019-02-25T05:26:37.776Z,8.70
2019-02-25T05:29:06.830Z,8.70
2019-02-25T05:31:36.164Z,8.70
2019-02-25T05:34:05.535Z,8.70
2019-02-25T05:36:34.611Z,8.70
2019-02-25T05:39:05.330Z,8.60
2019-02-25T05:41:34.485Z,8.60
2019-02-25T05:44:03.612Z,8.60
2019-02-25T05:46:33.123Z,8.60
2019-02-25T05:49:02.476Z,8.60
2019-02-25T05:51:31.742Z,8.60
2019-02-25T05:54:01.344Z,8.60
2019-02-25T05:56:30.400Z,8.60
2019-02-25T05:58:59.628Z,8.60
2019-02-25T06:01:28.738Z,8.60
2019-02-25T06:03:57.626Z,8.60
2019-02-25T06:06:26.860Z,8.60
2019-02-25T06:08:56.407Z,8.60
2019-02-25T06:11:25.471Z,8.60
2019-02-25T06:13:54.572Z,8.60
2019-02-25T06:16:23.906Z,8.50
2019-02-25T06:18:53.119Z,8.50
2019-02-25T06:21:23.266Z,8.50
2019-02-25T06:23:52.382Z,8.50
2019-02-25T06:26:21.721Z,8.50
2019-02-25T06:28:50.698Z,8.50
2019-02-25T06:31:19.635Z,8.50
2019-02-25T06:33:48.504Z,8.60
2019-02-25T06:36:17.402Z,8.60
2019-02-25T06:38:46.670Z,8.60
2019-02-25T06:41:16.046Z,8.60
2019-02-25T06:43:44.928Z,8.60
2019-02-25T06:46:13.923Z,8.60
2019-02-25T06:48:42.909Z,8.60
2019-02-25T06:51:11.839Z,8.60
2019-02-25T06:53:41.163Z,8.60
2019-02-25T06:56:10.926Z,8.70
2019-02-25T06:58:39.984Z,8.70
2019-02-25T07:01:09.020Z,8.70
2019-02-25T07:03:38.312Z,8.70
2019-02-25T07:06:28.267Z,9.00
2019-02-25T07:09:16.856Z,9.30
2019-02-25T07:11:58.945Z,9.70
2019-02-25T07:14:47.548Z,9.80
2019-02-25T07:17:25.421Z,9.70
2019-02-25T07:24:20.271Z,9.70
2019-02-25T07:27:08.370Z,9.90
2019-02-25T07:29:55.893Z,10.00
2019-02-25T07:33:00.722Z,10.00
2019-02-25T07:35:51.829Z,9.90
2019-02-25T07:38:49.134Z,9.90
2019-02-25T07:41:25.884Z,10.40
2019-02-25T07:44:02.032Z,11.00
2019-02-25T07:46:37.818Z,11.00
2019-02-25T07:49:14.263Z,11.10
2019-02-25T07:51:52.865Z,11.00
2019-02-25T07:54:40.970Z,10.90
2019-02-25T07:57:17.457Z,10.90
2019-02-25T08:00:02.915Z,11.00
2019-02-25T08:02:53.842Z,10.90
2019-02-25T08:05:40.901Z,10.80
2019-02-25T08:08:39.050Z,10.80
2019-02-25T08:11:18.088Z,10.70
2019-02-25T08:13:57.563Z,10.60
2019-02-25T08:16:48.949Z,10.60
2019-02-25T08:19:30.357Z,10.60
2019-02-25T08:22:18.390Z,10.60
2019-02-25T08:25:16.077Z,10.70
2019-02-25T08:28:04.260Z,10.70
2019-02-25T08:30:40.170Z,10.60
2019-02-25T08:33:29.065Z,10.70
2019-02-25T08:37:02.457Z,10.80
2019-02-25T08:39:56.602Z,10.80
2019-02-25T08:42:31.145Z,10.70
2019-02-25T08:45:09.872Z,10.80
2019-02-25T08:47:51.577Z,10.80
2019-02-25T08:50:20.554Z,10.90
2019-02-25T08:52:49.612Z,11.10
2019-02-25T08:55:19.025Z,11.20
2019-02-25T08:57:48.482Z,11.30
2019-02-25T09:00:17.544Z,11.40
2019-02-25T09:02:46.960Z,11.50
2019-02-25T09:05:16.240Z,11.60
2019-02-25T09:07:45.270Z,11.70
2019-02-25T09:10:15.039Z,11.80
2019-02-25T09:12:44.194Z,11.90
2019-02-25T09:15:13.347Z,12.00
2019-02-25T09:17:44.390Z,12.10
2019-02-25T09:20:14.467Z,12.20
2019-02-25T09:22:43.581Z,12.30
2019-02-25T09:25:12.887Z,12.40
2019-02-25T09:27:42.429Z,12.50
2019-02-25T09:30:14.043Z,12.60
2019-02-25T09:32:43.292Z,12.60
2019-02-25T09:35:12.375Z,12.70
2019-02-25T09:37:41.477Z,12.80
2019-02-25T09:40:12.918Z,12.90
2019-02-25T09:42:42.006Z,12.90
2019-02-25T09:45:13.241Z,13.00
2019-02-25T09:47:42.328Z,13.10
2019-02-25T09:50:12.524Z,13.20
2019-02-25T09:52:41.590Z,13.30
2019-02-25T09:55:11.660Z,13.40
2019-02-25T09:57:40.811Z,13.50
2019-02-25T10:00:13.972Z,13.50
2019-02-25T10:02:42.952Z,13.60
2019-02-25T10:05:12.519Z,13.70
2019-02-25T10:07:41.686Z,13.70
2019-02-25T10:10:12.553Z,13.90
2019-02-25T10:12:41.667Z,13.90
2019-02-25T10:15:12.296Z,14.00
2019-02-25T10:17:41.985Z,14.10
2019-02-25T10:20:11.417Z,14.20
2019-02-25T10:22:40.523Z,14.40
2019-02-25T10:25:09.971Z,14.50
2019-02-25T10:27:39.283Z,14.60
2019-02-25T10:30:10.040Z,14.70
2019-02-25T10:32:39.170Z,14.70
2019-02-25T10:35:10.710Z,14.80
2019-02-25T10:37:41.368Z,14.90
2019-02-25T10:40:13.167Z,14.90
2019-02-25T10:42:42.854Z,14.90
2019-02-25T10:45:14.795Z,15.10
2019-02-25T10:47:44.258Z,15.20
2019-02-25T10:50:14.758Z,15.30
2019-02-25T10:52:44.995Z,15.40
2019-02-25T10:55:40.070Z,15.50
2019-02-25T10:58:10.215Z,15.50
2019-02-25T11:00:41.622Z,15.50
2019-02-25T11:03:12.841Z,15.70
2019-02-25T11:05:41.608Z,15.80
2019-02-25T11:08:13.874Z,15.90
2019-02-25T11:10:48.663Z,16.00
2019-02-25T11:13:17.954Z,16.10
2019-02-25T11:15:48.426Z,16.20
2019-02-25T11:18:19.746Z,16.30
2019-02-25T11:20:48.938Z,16.40
2019-02-25T11:23:19.448Z,16.60
2019-02-25T11:25:51.504Z,16.70
2019-02-25T11:28:25.376Z,16.70
2019-02-25T11:30:53.809Z,16.80
2019-02-25T11:33:25.128Z,16.90
2019-02-25T11:35:53.913Z,17.00
2019-02-25T11:38:23.834Z,17.10
2019-02-25T11:40:54.092Z,17.10
2019-02-25T11:43:23.645Z,17.30
2019-02-25T11:45:53.011Z,17.40
2019-02-25T11:48:22.671Z,17.40
2019-02-25T11:50:52.309Z,17.40
2019-02-25T11:53:21.498Z,17.50
2019-02-25T11:55:50.612Z,17.50
2019-02-25T11:58:19.602Z,17.50
2019-02-25T12:00:49.372Z,17.60
2019-02-25T12:03:18.662Z,17.60
2019-02-25T12:05:47.690Z,17.60
2019-02-25T12:08:17.236Z,17.60
2019-02-25T12:10:46.344Z,17.70
2019-02-25T12:13:15.710Z,17.80
2019-02-25T12:15:45.069Z,17.80
2019-02-25T12:18:14.472Z,17.80
2019-02-25T12:20:43.570Z,17.90
2019-02-25T12:23:13.426Z,17.90
2019-02-25T12:25:42.436Z,17.90
2019-02-25T12:28:12.129Z,18.00
2019-02-25T12:30:41.587Z,18.00
2019-02-25T12:33:10.635Z,18.10
2019-02-25T12:35:39.858Z,18.10
2019-02-25T12:38:09.600Z,18.10
2019-02-25T12:40:38.826Z,18.10
2019-02-25T12:43:08.240Z,18.20
2019-02-25T12:45:37.253Z,18.20
2019-02-25T12:48:06.569Z,18.20
2019-02-25T12:50:55.147Z,18.20
2019-02-25T12:53:24.446Z,18.20
2019-02-25T12:55:53.523Z,18.20
2019-02-25T12:58:22.669Z,18.30
2019-02-25T13:00:51.862Z,18.30
2019-02-25T13:03:20.922Z,18.40
2019-02-25T13:05:50.449Z,18.40
2019-02-25T13:08:19.660Z,18.50
2019-02-25T13:10:49.205Z,18.50
2019-02-25T13:13:18.413Z,18.60
2019-02-25T13:15:47.551Z,18.60
2019-02-25T13:18:17.200Z,18.60
2019-02-25T13:20:47.547Z,18.60
2019-02-25T13:23:16.648Z,18.70
2019-02-25T13:25:45.807Z,18.70
2019-02-25T13:28:14.938Z,18.70
2019-02-25T13:30:44.486Z,18.70
2019-02-25T13:33:14.304Z,18.80
2019-02-25T13:35:43.520Z,18.80
2019-02-25T13:38:13.232Z,19.90
2019-02-25T13:40:42.803Z,18.90
2019-02-25T13:43:14.156Z,19.00
2019-02-25T13:45:43.427Z,19.00
2019-02-25T13:48:12.960Z,19.00
2019-02-25T13:50:43.138Z,19.00
2019-02-25T13:53:12.702Z,19.00
2019-02-25T13:55:42.148Z,19.00
2019-02-25T13:58:12.515Z,19.00
2019-02-25T14:00:42.058Z,19.00
2019-02-25T14:03:11.889Z,19.00
2019-02-25T14:05:41.377Z,19.00
2019-02-25T14:08:10.917Z,19.00
2019-02-25T14:10:39.978Z,19.10
2019-02-25T14:13:10.416Z,19.10
2019-02-25T14:15:40.104Z,19.10
2019-02-25T14:18:10.252Z,19.10
2019-02-25T14:20:40.356Z,19.10
2019-02-25T14:23:12.739Z,19.10
2019-02-25T14:25:42.185Z,19.10
2019-02-25T14:28:11.845Z,19.10
2019-02-25T14:30:41.423Z,19.10
2019-02-25T14:33:12.727Z,19.10
2019-02-25T14:35:41.942Z,19.10
2019-02-25T14:38:15.328Z,19.10
2019-02-25T14:40:44.811Z,19.10
2019-02-25T14:43:15.628Z,19.10
2019-02-25T14:45:46.486Z,19.00
2019-02-25T14:48:20.403Z,19.00
2019-02-25T14:50:47.146Z,19.00
2019-02-25T14:53:16.337Z,19.00
2019-02-25T14:55:47.758Z,19.00
2019-02-25T14:58:17.545Z,19.00
2019-02-25T15:00:46.860Z,19.00
2019-02-25T15:03:16.381Z,18.90
2019-02-25T15:05:47.916Z,18.90
2019-02-25T15:08:17.790Z,18.90
2019-02-25T15:10:46.963Z,18.90
2019-02-25T15:13:16.407Z,19.00
2019-02-25T15:15:46.250Z,18.90
2019-02-25T15:18:16.482Z,18.90
2019-02-25T15:20:45.601Z,18.90
2019-02-25T15:23:16.700Z,18.90
2019-02-25T15:25:47.169Z,18.90
2019-02-25T15:28:18.318Z,18.90
2019-02-25T15:30:47.940Z,18.90
2019-02-25T15:33:16.942Z,18.90
2019-02-25T15:35:46.158Z,18.90
2019-02-25T15:38:15.344Z,18.90
2019-02-25T15:40:44.494Z,18.90
2019-02-25T15:43:17.548Z,18.90
2019-02-25T15:45:45.930Z,19.00
2019-02-25T15:48:16.902Z,18.90
2019-02-25T15:50:48.407Z,18.90
2019-02-25T15:53:17.663Z,18.90
2019-02-25T15:55:47.309Z,19.00
2019-02-25T15:58:17.571Z,19.00
2019-02-25T16:00:46.985Z,19.00
2019-02-25T16:03:20.280Z,18.90
2019-02-25T16:05:47.638Z,18.90
2019-02-25T16:08:19.182Z,18.80
2019-02-25T16:10:49.444Z,18.80
2019-02-25T16:13:19.226Z,18.70
2019-02-25T16:15:48.510Z,18.70
2019-02-25T16:18:18.081Z,18.70
2019-02-25T16:20:47.377Z,18.60
2019-02-25T16:23:16.826Z,18.60
2019-02-25T16:25:48.769Z,18.50
2019-02-25T16:28:18.319Z,18.50
2019-02-25T16:30:49.125Z,18.50
2019-02-25T16:33:19.276Z,18.40
2019-02-25T16:35:48.470Z,18.40
2019-02-25T16:38:21.061Z,18.30
2019-02-25T16:40:50.241Z,18.30
2019-02-25T16:43:20.282Z,18.20
2019-02-25T16:45:51.090Z,18.10
2019-02-25T16:48:25.574Z,18.20
2019-02-25T16:50:54.346Z,18.10
2019-02-25T16:53:23.589Z,18.10
2019-02-25T16:55:52.995Z,18.10
2019-02-25T16:58:22.540Z,18.00
2019-02-25T17:00:55.994Z,18.00
2019-02-25T17:03:23.828Z,17.80
2019-02-25T17:05:53.099Z,17.80
2019-02-25T17:08:24.012Z,17.70
2019-02-25T17:10:56.191Z,17.60
2019-02-25T17:13:26.190Z,17.50
2019-02-25T17:15:56.100Z,17.50
2019-02-25T17:18:25.448Z,17.40
2019-02-25T17:20:54.560Z,17.30
2019-02-25T17:23:27.187Z,17.20
2019-02-25T17:25:54.476Z,17.10
2019-02-25T17:28:25.027Z,17.00
2019-02-25T17:30:54.193Z,16.90
2019-02-25T17:33:25.769Z,16.80
2019-02-25T17:35:54.558Z,16.80
2019-02-25T17:38:25.111Z,16.70
2019-02-25T17:40:55.667Z,16.60
2019-02-25T17:43:27.214Z,16.50
2019-02-25T17:46:00.588Z,16.40
2019-02-25T17:48:32.061Z,16.40
2019-02-25T17:51:02.143Z,16.30
2019-02-25T17:53:33.654Z,16.20
2019-02-25T17:56:03.233Z,16.20
2019-02-25T17:58:37.717Z,16.10
2019-02-25T18:01:08.361Z,16.10
2019-02-25T18:03:39.486Z,16.00
2019-02-25T18:06:12.706Z,16.00
2019-02-25T18:08:47.901Z,16.00
2019-02-25T18:11:24.618Z,16.00
2019-02-25T18:13:58.235Z,15.90
2019-02-25T18:16:35.331Z,15.90
2019-02-25T18:19:05.098Z,15.80
2019-02-25T18:21:35.156Z,15.80
2019-02-25T18:24:04.432Z,15.70
2019-02-25T18:26:33.776Z,15.70
2019-02-25T18:29:02.936Z,15.60
2019-02-25T18:31:32.361Z,15.50
2019-02-25T18:34:02.244Z,15.50
2019-02-25T18:36:32.770Z,15.40
2019-02-25T18:39:02.512Z,15.40
2019-02-25T18:41:34.135Z,15.40
2019-02-25T18:44:02.683Z,15.40
2019-02-25T18:46:31.922Z,15.30
2019-02-25T18:49:02.987Z,15.30
2019-02-25T18:51:32.857Z,15.30
2019-02-25T18:54:03.702Z,15.20
2019-02-25T18:56:33.738Z,15.10
2019-02-25T18:59:12.223Z,15.10
2019-02-25T19:01:35.431Z,15.00
2019-02-25T19:04:04.957Z,15.00
2019-02-25T19:06:34.632Z,15.00
2019-02-25T19:09:05.616Z,15.00
2019-02-25T19:11:34.804Z,14.90
2019-02-25T19:14:04.080Z,14.80
2019-02-25T19:16:33.105Z,14.80
2019-02-25T19:19:04.056Z,14.80
2019-02-25T19:21:34.160Z,14.80
2019-02-25T19:24:05.421Z,14.80
2019-02-25T19:26:34.462Z,14.70
2019-02-25T19:29:03.628Z,14.70
2019-02-25T19:31:33.092Z,14.60
2019-02-25T19:34:02.358Z,14.60
2019-02-25T19:36:34.304Z,14.60
2019-02-25T19:39:07.326Z,14.60
2019-02-25T19:41:34.089Z,14.50
2019-02-25T19:44:04.163Z,14.50
2019-02-25T19:46:34.553Z,14.50
2019-02-25T19:49:04.422Z,14.40
2019-02-25T19:51:33.690Z,14.40
2019-02-25T19:54:06.739Z,14.30
2019-02-25T19:56:34.779Z,14.30
2019-02-25T19:59:05.682Z,14.30
2019-02-25T20:01:34.927Z,14.20
2019-02-25T20:04:06.384Z,14.20
2019-02-25T20:06:35.227Z,14.20
2019-02-25T20:09:07.467Z,14.20
2019-02-25T20:11:36.571Z,14.10
2019-02-25T20:14:05.791Z,14.10
2019-02-25T20:16:39.965Z,14.00
2019-02-25T20:19:13.100Z,14.00
2019-02-25T20:21:43.437Z,14.00
2019-02-25T20:24:14.627Z,14.00
2019-02-25T20:26:52.531Z,13.90
2019-02-25T20:29:20.889Z,13.80
2019-02-25T20:31:51.768Z,13.80
2019-02-25T20:34:23.001Z,13.80
2019-02-25T20:36:55.027Z,13.70
2019-02-25T20:39:24.424Z,13.70
2019-02-25T20:41:54.349Z,13.70
2019-02-25T20:44:26.299Z,13.60
2019-02-25T20:46:57.388Z,13.60
2019-02-25T20:49:30.018Z,13.50
2019-02-25T20:52:01.166Z,13.50
2019-02-25T20:54:30.256Z,13.40
2019-02-25T20:56:59.796Z,13.40
2019-02-25T20:59:30.931Z,13.30
2019-02-25T21:01:59.729Z,13.30
2019-02-25T21:04:29.433Z,13.30
2019-02-25T21:06:58.412Z,13.20
2019-02-25T21:09:27.450Z,13.20
2019-02-25T21:11:56.420Z,13.10
2019-02-25T21:14:25.437Z,13.10
2019-02-25T21:16:56.406Z,13.10
2019-02-25T21:19:25.742Z,13.10
2019-02-25T21:22:08.888Z,13.00
2019-02-25T21:24:39.062Z,13.00
2019-02-25T21:27:09.994Z,13.00
2019-02-25T21:29:40.631Z,12.90
2019-02-25T21:32:12.772Z,12.90
2019-02-25T21:34:40.886Z,12.80
2019-02-25T21:37:09.820Z,12.80
2019-02-25T21:39:40.721Z,12.80
2019-02-25T21:42:12.672Z,12.70
2019-02-25T21:44:40.830Z,12.70
2019-02-25T21:47:10.267Z,12.70
2019-02-25T21:49:40.513Z,12.70
2019-02-25T21:52:13.052Z,12.70
2019-02-25T21:54:41.964Z,12.60
2019-02-25T21:57:11.013Z,12.60
2019-02-25T21:59:41.098Z,12.60
2019-02-25T22:02:11.906Z,12.60
2019-02-25T22:04:43.063Z,12.50
2019-02-25T22:07:11.937Z,12.50
2019-02-25T22:09:43.640Z,12.50
2019-02-25T22:12:12.110Z,12.50
2019-02-25T22:14:41.249Z,12.40
2019-02-25T22:17:12.941Z,12.40
2019-02-25T22:19:43.710Z,12.40
2019-02-25T22:22:13.448Z,12.40
2019-02-25T22:24:43.350Z,12.30
2019-02-25T22:27:14.005Z,12.30
2019-02-25T22:29:45.134Z,12.30
2019-02-25T22:32:14.354Z,12.20
2019-02-25T22:34:43.450Z,12.20
2019-02-25T22:37:16.676Z,12.10
2019-02-25T22:39:43.913Z,12.10
2019-02-25T22:42:13.917Z,12.10
2019-02-25T22:44:44.943Z,12.00
2019-02-25T22:47:15.974Z,12.00
2019-02-25T22:49:44.819Z,12.00
2019-02-25T22:52:13.709Z,11.90
2019-02-25T22:54:43.558Z,11.90
2019-02-25T22:57:13.409Z,11.90
2019-02-25T22:59:42.445Z,11.80
2019-02-25T23:02:11.824Z,11.80
2019-02-25T23:04:44.864Z,11.80
2019-02-25T23:07:13.048Z,11.80
2019-02-25T23:09:43.550Z,11.70
2019-02-25T23:12:15.747Z,11.70
2019-02-25T23:14:44.914Z,11.70
2019-02-25T23:17:15.738Z,11.70
2019-02-25T23:19:45.348Z,11.70
2019-02-25T23:22:14.450Z,11.70
2019-02-25T23:24:43.919Z,11.60
2019-02-25T23:27:13.343Z,11.60
2019-02-25T23:29:43.126Z,11.50
2019-02-25T23:32:12.904Z,11.50
2019-02-25T23:34:44.475Z,11.50
2019-02-25T23:37:14.782Z,11.50
2019-02-25T23:39:44.856Z,11.40
2019-02-25T23:42:16.268Z,11.40
2019-02-25T23:44:45.727Z,11.40
2019-02-25T23:47:15.045Z,11.30
2019-02-25T23:49:46.086Z,11.30
2019-02-25T23:52:15.198Z,11.30
2019-02-25T23:54:47.115Z,11.20
2019-02-25T23:57:17.319Z,11.20
2019-02-25T23:59:48.797Z,11.20
